»·PEaware :: TPX276 KBUR-KLAS

TPX276 :: KBUR-KLAS

FLIGHT INFORMATION

Flight Status: Arrived
Operator: ATP Experience
More flights by this operator :: More flights under this callsign
Pilot: Dave P. (45)
Aircraft: BOEING 737-800
(B738)
More flights by this aircraft type
Origin: KBUR Bob Hope-Burbank
United States
Destination: KLAS McCarran Intl
United States
More flights between these airports :: More routes between these airports
Route: SLAPP1 MISEN KEPEC6
File this flight plan on PilotEdge
Remarks: PBN / A1B1C1D1S1S2 DOF / 180619 REG / N738PM OPR / TPX PER / D RMK / TCAS SIMBRIEF
Altitude:
(Current/Filed)
27,000ft
Speed:
(Current/Filed)
459kts
Departed: 19-Jun-18 09:57 AM
Arrived: 19-Jun-18 10:45 AM
Distance/Time
Traveled:
194nm/0:48
Distance/Time
To Go:
Arrived

Flight Plot

Page will automatically refresh every two minutes.

Flight plan parsing failed; only flown route is shown


Map Options




Map Legend


Flown Route
Filed Route
Departure Airport
Arrival Airport
Navaid (VOR, NDB)
Fix

Horizontal Profiles

Position Reports

Time Latitude Longitude Heading Altitude Ground
Speed
19-Jun-18 09:38 34.196650 -118.354927 169 729ft 0kts
19-Jun-18 09:39 34.196650 -118.354927 169 729ft 0kts
19-Jun-18 09:40 34.196650 -118.354927 169 729ft 0kts
19-Jun-18 09:41 34.196650 -118.354927 169 729ft 0kts
19-Jun-18 09:42 34.196650 -118.354927 169 729ft 0kts
19-Jun-18 09:43 34.196650 -118.354927 169 729ft 0kts
19-Jun-18 09:44 34.196650 -118.354927 169 729ft 0kts
19-Jun-18 09:45 34.196650 -118.354927 169 729ft 0kts
19-Jun-18 09:46 34.196650 -118.354927 169 729ft 0kts
19-Jun-18 09:47 34.196650 -118.354927 169 729ft 0kts
19-Jun-18 09:48 34.196650 -118.354927 169 729ft 0kts
19-Jun-18 09:49 34.197169 -118.354814 213 729ft 0kts
19-Jun-18 09:50 34.197169 -118.354814 213 729ft 0kts
19-Jun-18 09:51 34.197169 -118.354815 213 729ft 0kts
19-Jun-18 09:52 34.199262 -118.355421 348 729ft 20kts
19-Jun-18 09:53 34.204425 -118.356865 346 729ft 22kts
19-Jun-18 09:54 34.209830 -118.358395 346 729ft 16kts
19-Jun-18 09:55 34.212257 -118.359593 265 729ft 0kts
19-Jun-18 09:56 34.211765 -118.360307 168 729ft 11kts
19-Jun-18 09:57 34.183009 -118.352252 166 1717ft 162kts
19-Jun-18 09:58 34.139689 -118.384543 222 3594ft 238kts
19-Jun-18 09:59 34.112490 -118.457560 300 5131ft 275kts
19-Jun-18 10:00 34.183421 -118.487483 353 8262ft 287kts
19-Jun-18 10:01 34.258067 -118.455163 28 10828ft 294kts
19-Jun-18 10:02 34.337590 -118.400621 26 11952ft 363kts
19-Jun-18 10:03 34.431233 -118.346218 16 14238ft 379kts
19-Jun-18 10:04 34.522156 -118.274911 36 16586ft 403kts
19-Jun-18 10:05 34.609523 -118.186123 35 18723ft 417kts
19-Jun-18 10:06 34.675626 -118.069626 72 19104ft 435kts
19-Jun-18 10:07 34.695337 -117.924086 84 19672ft 443kts
19-Jun-18 10:08 34.703663 -117.773132 84 21601ft 454kts
19-Jun-18 10:09 34.710144 -117.617539 86 23259ft 466kts
19-Jun-18 10:10 34.726056 -117.460231 72 24770ft 474kts
19-Jun-18 10:11 34.767371 -117.306401 69 26155ft 484kts
19-Jun-18 10:12 34.808987 -117.149624 69 27103ft 486kts
19-Jun-18 10:13 34.850556 -116.993584 69 27088ft 485kts
19-Jun-18 10:14 34.891377 -116.837084 69 27056ft 486kts
19-Jun-18 10:15 34.942305 -116.686470 53 27052ft 468kts
19-Jun-18 10:16 35.015208 -116.558776 50 26572ft 448kts
19-Jun-18 10:17 35.084944 -116.434941 52 24572ft 438kts
19-Jun-18 10:18 35.162153 -116.328331 41 24069ft 394kts
19-Jun-18 10:19 35.235255 -116.236997 40 22841ft 381kts
19-Jun-18 10:20 35.313253 -116.138852 41 20036ft 404kts
19-Jun-18 10:21 35.391291 -116.040735 40 18525ft 398kts
19-Jun-18 10:22 35.467337 -115.944904 40 17015ft 387kts
19-Jun-18 10:23 35.541191 -115.851378 41 15583ft 377kts
19-Jun-18 10:24 35.612449 -115.760551 42 14208ft 359kts
19-Jun-18 10:25 35.680096 -115.674182 42 13052ft 338kts
19-Jun-18 10:26 35.742360 -115.595036 36 12988ft 313kts
19-Jun-18 10:27 35.823715 -115.571092 358 12999ft 304kts
19-Jun-18 10:28 35.908043 -115.567052 358 13000ft 303kts
19-Jun-18 10:29 35.985460 -115.532763 52 12680ft 327kts
19-Jun-18 10:30 36.013798 -115.428992 66 11557ft 304kts
19-Jun-18 10:31 36.028428 -115.331548 93 10476ft 287kts
19-Jun-18 10:32 36.020926 -115.234214 94 9349ft 281kts
19-Jun-18 10:33 36.014425 -115.141431 93 8492ft 260kts
19-Jun-18 10:34 36.008902 -115.056399 93 8019ft 233kts
19-Jun-18 10:35 36.004374 -114.980067 94 8029ft 218kts
19-Jun-18 10:36 35.999695 -114.904196 93 7991ft 222kts
19-Jun-18 10:37 35.995131 -114.828433 93 7980ft 221kts
19-Jun-18 10:38 36.021315 -114.776874 343 7353ft 214kts
19-Jun-18 10:39 36.049696 -114.835546 292 6137ft 201kts
19-Jun-18 10:40 36.070437 -114.899156 292 5016ft 197kts
19-Jun-18 10:41 36.073917 -114.966864 270 4688ft 203kts
19-Jun-18 10:42 36.073736 -115.033910 270 3624ft 179kts
19-Jun-18 10:43 36.073685 -115.092023 270 2739ft 159kts
19-Jun-18 10:44 36.073657 -115.141456 269 2189ft 66kts
19-Jun-18 10:45 36.074963 -115.146257 319 2189ft 7kts
19-Jun-18 10:46 36.077183 -115.146533 355 2189ft 4kts
19-Jun-18 10:47 36.078409 -115.145918 93 2189ft 15kts
19-Jun-18 10:48 36.078236 -115.140532 90 2189ft 14kts
19-Jun-18 10:49 36.080014 -115.138064 47 2189ft 7kts
19-Jun-18 10:50 36.080825 -115.138360 313 2189ft 0kts
19-Jun-18 10:51 36.080825 -115.138360 313 2189ft 0kts
19-Jun-18 10:52 36.080825 -115.138360 313 2189ft 0kts
19-Jun-18 10:53 36.080825 -115.138360 313 2189ft 0kts
19-Jun-18 10:54 36.080825 -115.138360 313 2189ft 0kts
19-Jun-18 10:55 36.080825 -115.138360 313 2189ft 0kts
19-Jun-18 10:56 36.080825 -115.138360 313 2189ft 0kts
19-Jun-18 10:57 36.080825 -115.138360 313 2189ft 0kts

Navigation Log

Ident Type
Flight plan parsing failed, navigation log unavailable